createdAt,value
2023-03-21T00:02:17.129Z,17.67
2023-03-21T00:04:51.491Z,16.42
2023-03-21T00:07:21.302Z,11.07
2023-03-21T00:09:48.899Z,16.17
2023-03-21T00:12:20.923Z,14.10
2023-03-21T00:14:48.513Z,10.27
2023-03-21T00:17:16.793Z,15.00
2023-03-21T00:19:46.252Z,16.83
2023-03-21T00:22:13.852Z,15.33
2023-03-21T00:24:41.635Z,12.75
2023-03-21T00:27:42.607Z,14.83
2023-03-21T00:29:58.445Z,14.97
2023-03-21T00:32:26.466Z,12.25
2023-03-21T00:35:11.921Z,17.90
2023-03-21T00:37:42.978Z,12.53
2023-03-21T00:40:23.088Z,14.48
2023-03-21T00:42:52.839Z,13.23
2023-03-21T00:45:22.090Z,14.45
2023-03-21T00:47:49.891Z,9.47
2023-03-21T00:50:18.058Z,16.07
2023-03-21T00:52:45.634Z,14.20
2023-03-21T00:55:15.656Z,14.38
2023-03-21T00:57:47.564Z,12.80
2023-03-21T01:00:22.311Z,14.80
2023-03-21T01:03:14.232Z,11.32
2023-03-21T01:06:05.916Z,14.18
2023-03-21T01:08:48.641Z,11.10
2023-03-21T01:11:22.537Z,14.37
2023-03-21T01:13:56.219Z,14.70
2023-03-21T01:16:31.052Z,13.07
2023-03-21T01:18:59.528Z,19.70
2023-03-21T01:21:27.626Z,13.43
2023-03-21T01:23:55.400Z,19.38
2023-03-21T01:26:23.009Z,15.15
2023-03-21T01:28:50.703Z,20.70
2023-03-21T01:31:19.036Z,17.40
2023-03-21T01:33:48.785Z,15.52
2023-03-21T01:36:23.517Z,13.02
2023-03-21T01:38:54.082Z,21.27
2023-03-21T01:41:36.633Z,17.88
2023-03-21T01:44:15.231Z,12.80
2023-03-21T01:46:54.438Z,16.80
2023-03-21T01:49:41.564Z,13.83
2023-03-21T01:52:35.880Z,14.05
2023-03-21T01:55:11.891Z,21.25
2023-03-21T01:58:02.402Z,17.00
2023-03-21T02:00:36.496Z,17.00
2023-03-21T02:03:29.622Z,23.23
2023-03-21T02:06:17.312Z,20.80
2023-03-21T02:08:49.664Z,21.10
2023-03-21T02:11:17.962Z,18.10
2023-03-21T02:13:45.957Z,14.40
2023-03-21T02:16:22.615Z,19.55
2023-03-21T02:18:59.794Z,21.55
2023-03-21T02:21:57.581Z,18.80
2023-03-21T02:25:01.509Z,15.60
2023-03-21T02:27:36.009Z,18.17
2023-03-21T02:30:52.675Z,17.77
2023-03-21T02:33:42.686Z,16.70
2023-03-21T02:36:28.702Z,19.95
2023-03-21T02:39:07.859Z,20.08
2023-03-21T02:41:47.479Z,19.23
2023-03-21T02:44:22.815Z,20.60
2023-03-21T02:47:03.203Z,17.63
2023-03-21T02:49:43.094Z,21.10
2023-03-21T02:52:35.490Z,23.60
2023-03-21T02:55:13.742Z,22.35
2023-03-21T02:57:52.500Z,27.80
2023-03-21T03:00:23.078Z,23.23
2023-03-21T03:03:02.608Z,20.73
2023-03-21T03:05:42.620Z,21.80
2023-03-21T03:08:36.170Z,25.55
2023-03-21T03:11:20.705Z,20.48
2023-03-21T03:14:15.510Z,25.13
2023-03-21T03:16:59.539Z,17.92
2023-03-21T03:19:31.195Z,24.35
2023-03-21T03:22:07.682Z,17.00
2023-03-21T03:24:43.989Z,21.08
2023-03-21T03:27:18.517Z,20.40
2023-03-21T03:29:50.326Z,26.93
2023-03-21T03:32:28.201Z,17.02
2023-03-21T03:34:57.522Z,19.35
2023-03-21T03:37:34.449Z,20.00
2023-03-21T03:40:07.093Z,18.70
2023-03-21T03:42:42.678Z,17.23
2023-03-21T03:45:26.456Z,19.63
2023-03-21T03:48:00.226Z,20.13
2023-03-21T03:50:39.809Z,15.40
2023-03-21T03:53:20.464Z,16.00
2023-03-21T03:55:52.551Z,20.13
2023-03-21T03:58:33.441Z,13.88
2023-03-21T04:01:08.327Z,19.38
2023-03-21T04:03:48.384Z,15.80
2023-03-21T04:06:18.193Z,25.97
2023-03-21T04:08:46.440Z,18.08
2023-03-21T04:11:15.530Z,18.20
2023-03-21T04:13:48.800Z,19.43
2023-03-21T04:16:23.230Z,21.50
2023-03-21T04:18:52.381Z,23.80
2023-03-21T04:21:21.563Z,19.40
2023-03-21T04:23:49.218Z,18.65
2023-03-21T04:26:17.458Z,23.90
2023-03-21T04:29:00.467Z,19.02
2023-03-21T04:31:51.078Z,15.23
2023-03-21T04:34:23.799Z,22.52
2023-03-21T04:36:54.040Z,15.98
2023-03-21T04:39:24.403Z,24.17
2023-03-21T04:41:52.227Z,16.40
2023-03-21T04:44:21.924Z,21.65
2023-03-21T04:46:50.237Z,23.55
2023-03-21T04:49:18.866Z,18.58
2023-03-21T04:51:46.443Z,27.70
2023-03-21T04:54:18.934Z,19.38
2023-03-21T04:56:46.525Z,20.30
2023-03-21T04:59:16.579Z,21.45
2023-03-21T05:01:46.335Z,22.05
2023-03-21T05:04:15.713Z,22.48
2023-03-21T05:06:43.934Z,18.95
2023-03-21T05:09:11.842Z,22.10
2023-03-21T05:11:41.362Z,14.82
2023-03-21T05:14:12.744Z,17.10
2023-03-21T05:16:48.349Z,19.65
2023-03-21T05:19:19.122Z,19.23
2023-03-21T05:21:48.736Z,15.67
2023-03-21T05:24:22.710Z,22.05
2023-03-21T05:26:52.372Z,20.42
2023-03-21T05:29:23.307Z,16.80
2023-03-21T05:31:56.643Z,15.88
2023-03-21T05:34:26.994Z,22.83
2023-03-21T05:36:55.192Z,21.40
2023-03-21T05:39:25.185Z,24.05
2023-03-21T05:42:01.761Z,15.03
2023-03-21T05:44:30.489Z,13.23
2023-03-21T05:46:59.119Z,15.40
2023-03-21T05:49:38.480Z,20.48
2023-03-21T05:52:07.004Z,14.70
2023-03-21T05:54:34.700Z,18.88
2023-03-21T05:57:02.541Z,12.77
2023-03-21T05:59:48.626Z,15.97
2023-03-21T06:02:18.172Z,16.23
2023-03-21T06:04:50.496Z,17.77
2023-03-21T06:07:21.638Z,14.03
2023-03-21T06:09:50.606Z,13.65
2023-03-21T06:12:18.518Z,15.20
2023-03-21T06:15:02.313Z,15.32
2023-03-21T06:17:32.994Z,12.97
2023-03-21T06:20:08.310Z,12.07
2023-03-21T06:22:44.175Z,13.67
2023-03-21T06:25:11.921Z,19.55
2023-03-21T06:27:39.611Z,19.02
2023-03-21T06:30:10.746Z,17.27
2023-03-21T06:32:46.686Z,12.23
2023-03-21T06:35:19.675Z,21.60
2023-03-21T06:37:49.200Z,11.53
2023-03-21T06:40:17.924Z,17.38
2023-03-21T06:42:46.281Z,14.13
2023-03-21T06:45:15.577Z,19.20
2023-03-21T06:47:44.131Z,14.47
2023-03-21T06:50:22.095Z,15.50
2023-03-21T06:52:50.978Z,14.10
2023-03-21T06:55:22.969Z,12.93
2023-03-21T06:57:50.970Z,12.88
2023-03-21T07:00:19.663Z,16.95
2023-03-21T07:02:51.060Z,17.70
2023-03-21T07:05:21.764Z,10.90
2023-03-21T07:07:49.419Z,16.70
2023-03-21T07:10:17.282Z,12.43
2023-03-21T07:12:50.211Z,15.27
2023-03-21T07:15:22.355Z,18.70
2023-03-21T07:17:50.393Z,11.02
2023-03-21T07:20:18.432Z,10.90
2023-03-21T07:22:47.396Z,12.13
2023-03-21T07:25:17.222Z,14.15
2023-03-21T07:27:44.879Z,13.43
2023-03-21T07:30:13.548Z,12.00
2023-03-21T07:32:41.256Z,13.15
2023-03-21T07:35:11.894Z,13.68
2023-03-21T07:37:40.441Z,13.13
2023-03-21T07:40:13.135Z,19.80
2023-03-21T07:42:41.867Z,13.18
2023-03-21T07:45:16.024Z,16.35
2023-03-21T07:47:45.906Z,16.50
2023-03-21T07:50:13.923Z,20.67
2023-03-21T07:52:41.989Z,11.52
2023-03-21T07:55:11.409Z,13.83
2023-03-21T07:57:39.127Z,20.27
2023-03-21T08:00:07.953Z,13.50
2023-03-21T08:02:44.236Z,12.07
2023-03-21T08:05:12.393Z,15.02
2023-03-21T08:07:40.567Z,20.20
2023-03-21T08:10:11.166Z,16.92
2023-03-21T08:12:40.713Z,13.30
2023-03-21T08:15:09.685Z,11.77
2023-03-21T08:17:38.038Z,13.13
2023-03-21T08:20:08.921Z,15.05
2023-03-21T08:22:37.484Z,12.38
2023-03-21T08:25:08.027Z,17.13
2023-03-21T08:27:36.243Z,20.57
2023-03-21T08:30:06.535Z,17.88
2023-03-21T08:32:34.273Z,12.70
2023-03-21T08:35:03.948Z,12.00
2023-03-21T08:37:31.565Z,14.07
2023-03-21T08:39:59.460Z,17.93
2023-03-21T08:42:27.188Z,13.07
2023-03-21T08:44:54.820Z,13.53
2023-03-21T08:47:23.795Z,12.93
2023-03-21T08:49:59.045Z,18.43
2023-03-21T08:52:30.759Z,15.00
2023-03-21T08:54:58.348Z,16.43
2023-03-21T08:57:26.153Z,18.23
2023-03-21T08:59:53.815Z,14.13
2023-03-21T09:02:21.443Z,14.30
2023-03-21T09:04:53.073Z,18.33
2023-03-21T09:07:22.164Z,12.23
2023-03-21T09:10:08.127Z,19.30
2023-03-21T09:12:42.417Z,12.20
2023-03-21T09:15:12.968Z,12.05
2023-03-21T09:17:42.064Z,15.33
2023-03-21T09:20:18.592Z,15.13
2023-03-21T09:22:47.676Z,15.73
2023-03-21T09:25:16.675Z,15.37
2023-03-21T09:27:45.787Z,12.93
2023-03-21T09:30:16.313Z,12.17
2023-03-21T09:32:48.568Z,14.20
2023-03-21T09:35:18.787Z,15.87
2023-03-21T09:37:48.251Z,11.57
2023-03-21T09:40:20.162Z,11.50
2023-03-21T09:42:59.920Z,10.47
2023-03-21T09:45:36.424Z,11.47
2023-03-21T09:48:07.751Z,12.03
2023-03-21T09:50:40.401Z,13.87
2023-03-21T09:53:13.858Z,10.90
2023-03-21T09:55:42.882Z,11.50
2023-03-21T09:58:26.035Z,8.87
2023-03-21T10:01:01.081Z,12.00
2023-03-21T10:03:34.942Z,12.27
2023-03-21T10:06:08.270Z,11.20
2023-03-21T10:08:38.642Z,8.47
2023-03-21T10:11:13.630Z,11.87
2023-03-21T10:13:45.573Z,10.10
2023-03-21T10:16:16.356Z,16.20
2023-03-21T10:18:46.679Z,7.53
2023-03-21T10:21:47.406Z,11.33
2023-03-21T10:24:13.913Z,13.07
2023-03-21T10:26:42.309Z,6.63
2023-03-21T10:29:13.941Z,13.47
2023-03-21T10:31:43.630Z,12.80
2023-03-21T10:34:17.148Z,17.03
2023-03-21T10:36:46.391Z,10.60
2023-03-21T10:39:23.350Z,11.67
2023-03-21T10:41:51.111Z,5.60
2023-03-21T10:44:19.876Z,9.10
2023-03-21T10:46:56.071Z,7.63
2023-03-21T10:49:26.373Z,8.33
2023-03-21T10:51:58.741Z,8.40
2023-03-21T10:54:30.611Z,6.27
2023-03-21T10:57:02.388Z,14.40
2023-03-21T10:59:38.151Z,5.17
2023-03-21T11:02:07.507Z,7.83
2023-03-21T11:04:37.869Z,10.83
2023-03-21T11:07:08.165Z,11.63
2023-03-21T11:09:47.742Z,6.57
2023-03-21T11:12:17.366Z,7.33
2023-03-21T11:14:46.811Z,7.30
2023-03-21T11:17:25.887Z,9.33
2023-03-21T11:19:55.529Z,11.77
2023-03-21T11:22:26.742Z,10.93
2023-03-21T11:24:58.430Z,13.43
2023-03-21T11:27:29.331Z,7.07
2023-03-21T11:29:59.815Z,8.27
2023-03-21T11:32:33.705Z,8.93
2023-03-21T11:35:03.197Z,8.17
2023-03-21T11:37:35.498Z,9.90
2023-03-21T11:40:19.374Z,8.87
2023-03-21T11:42:51.765Z,8.83
2023-03-21T11:45:21.340Z,8.40
2023-03-21T11:47:51.110Z,7.90
2023-03-21T11:50:22.785Z,14.53
2023-03-21T11:53:30.179Z,6.73
2023-03-21T11:56:16.683Z,9.60
2023-03-21T11:58:58.675Z,7.73
2023-03-21T12:01:33.348Z,6.20
2023-03-21T12:04:18.376Z,7.00
2023-03-21T12:06:55.040Z,6.57
2023-03-21T12:09:35.612Z,8.10
2023-03-21T12:12:38.407Z,6.13
2023-03-21T12:15:14.102Z,5.80
2023-03-21T12:17:50.609Z,7.10
2023-03-21T12:20:27.675Z,6.87
2023-03-21T12:23:16.303Z,14.13
2023-03-21T12:25:52.436Z,5.27
2023-03-21T12:28:33.298Z,9.27
2023-03-21T12:31:10.852Z,5.40
2023-03-21T12:33:58.149Z,6.77
2023-03-21T12:36:42.263Z,6.93
2023-03-21T12:39:25.868Z,3.93
2023-03-21T12:42:10.883Z,7.33
2023-03-21T12:44:41.871Z,9.03
2023-03-21T12:47:13.229Z,6.17
2023-03-21T12:49:45.195Z,12.30
2023-03-21T12:52:17.242Z,5.90
2023-03-21T12:54:50.383Z,8.63
2023-03-21T12:57:23.229Z,8.70
2023-03-21T12:59:56.818Z,6.00
2023-03-21T13:02:30.499Z,8.67
2023-03-21T13:05:05.771Z,5.17
2023-03-21T13:07:38.028Z,5.50
2023-03-21T13:10:14.926Z,8.30
2023-03-21T13:12:57.714Z,7.03
2023-03-21T13:15:52.950Z,5.20
2023-03-21T13:18:33.787Z,5.77
2023-03-21T13:21:06.338Z,10.97
2023-03-21T13:23:36.757Z,6.03
2023-03-21T13:26:05.101Z,8.67
2023-03-21T13:28:36.646Z,6.90
2023-03-21T13:31:19.642Z,6.90
2023-03-21T13:33:49.570Z,6.63
2023-03-21T13:36:23.616Z,5.53
2023-03-21T13:38:53.493Z,4.97
2023-03-21T13:41:27.403Z,11.80
2023-03-21T13:44:09.791Z,5.80
2023-03-21T13:46:53.712Z,6.20
2023-03-21T13:49:32.253Z,4.70
2023-03-21T13:52:00.826Z,12.47
2023-03-21T13:54:40.209Z,7.17
2023-03-21T13:57:08.476Z,5.87
2023-03-21T13:59:40.905Z,5.23
2023-03-21T14:02:29.665Z,7.10
2023-03-21T14:05:06.060Z,6.13
2023-03-21T14:07:36.694Z,8.10
2023-03-21T14:10:07.880Z,5.17
2023-03-21T14:12:39.573Z,5.03
2023-03-21T14:15:17.841Z,6.80
2023-03-21T14:17:52.013Z,6.40
2023-03-21T14:20:22.914Z,3.97
2023-03-21T14:22:51.070Z,7.17
2023-03-21T14:25:20.916Z,6.03
2023-03-21T14:27:50.486Z,5.57
2023-03-21T14:30:25.476Z,6.27
2023-03-21T14:32:56.716Z,8.47
2023-03-21T14:35:24.760Z,6.10
2023-03-21T14:37:52.513Z,3.90
2023-03-21T14:40:23.499Z,7.47
2023-03-21T14:42:52.225Z,6.87
2023-03-21T14:45:23.299Z,5.77
2023-03-21T14:47:59.228Z,4.07
2023-03-21T14:50:35.729Z,4.57
2023-03-21T14:53:03.646Z,5.30
2023-03-21T14:55:32.013Z,4.90
2023-03-21T14:57:59.697Z,8.10
2023-03-21T15:00:31.880Z,5.97
2023-03-21T15:03:01.108Z,6.30
2023-03-21T15:05:33.396Z,5.70
2023-03-21T15:08:02.571Z,7.30
2023-03-21T15:10:32.480Z,4.10
2023-03-21T15:13:02.251Z,6.03
2023-03-21T15:15:33.090Z,3.70
2023-03-21T15:18:07.798Z,4.60
2023-03-21T15:20:38.548Z,6.13
2023-03-21T15:23:11.461Z,7.50
2023-03-21T15:25:40.673Z,9.17
2023-03-21T15:28:08.562Z,5.70
2023-03-21T15:30:37.632Z,7.20
2023-03-21T15:33:10.914Z,4.97
2023-03-21T15:35:40.529Z,8.20
2023-03-21T15:38:08.467Z,9.97
2023-03-21T15:40:36.330Z,4.80
2023-03-21T15:43:14.347Z,6.97
2023-03-21T15:45:50.643Z,8.10
2023-03-21T15:48:22.237Z,5.70
2023-03-21T15:50:57.461Z,4.87
2023-03-21T15:53:25.725Z,5.87
2023-03-21T15:55:57.119Z,6.50
2023-03-21T15:58:26.883Z,6.37
2023-03-21T16:00:58.125Z,5.90
2023-03-21T16:03:28.461Z,6.37
2023-03-21T16:06:10.615Z,4.73
2023-03-21T16:08:44.621Z,8.10
2023-03-21T16:11:18.381Z,7.07
2023-03-21T16:13:46.279Z,8.20
2023-03-21T16:16:21.956Z,14.80
2023-03-21T16:18:49.896Z,3.40
2023-03-21T16:21:19.427Z,5.30
2023-03-21T16:23:47.676Z,4.90
2023-03-21T16:26:17.393Z,8.00
2023-03-21T16:28:45.563Z,6.40
2023-03-21T16:31:15.708Z,4.97
2023-03-21T16:33:45.728Z,5.60
2023-03-21T16:36:15.475Z,5.43
2023-03-21T16:38:43.296Z,5.50
2023-03-21T16:41:12.000Z,5.80
2023-03-21T16:43:43.054Z,6.43
2023-03-21T16:46:14.423Z,7.67
2023-03-21T16:48:44.248Z,3.87
2023-03-21T16:51:15.114Z,9.07
2023-03-21T16:53:42.898Z,7.13
2023-03-21T16:56:15.474Z,4.73
2023-03-21T16:58:43.220Z,4.30
2023-03-21T17:01:14.171Z,4.53
2023-03-21T17:03:42.018Z,8.20
2023-03-21T17:06:16.326Z,4.10
2023-03-21T17:08:44.713Z,5.07
2023-03-21T17:11:16.212Z,6.17
2023-03-21T17:13:44.351Z,6.33
2023-03-21T17:16:13.426Z,5.93
2023-03-21T17:18:41.215Z,9.03
2023-03-21T17:21:14.469Z,7.13
2023-03-21T17:23:44.141Z,6.80
2023-03-21T17:26:13.966Z,5.00
2023-03-21T17:28:42.509Z,6.80
2023-03-21T17:31:14.269Z,3.93
2023-03-21T17:33:42.284Z,6.53
2023-03-21T17:36:14.594Z,4.90
2023-03-21T17:38:45.748Z,7.67
2023-03-21T17:41:15.311Z,4.83
2023-03-21T17:43:43.191Z,5.53
2023-03-21T17:46:14.470Z,7.10
2023-03-21T17:48:42.171Z,9.73
2023-03-21T17:51:12.732Z,5.20
2023-03-21T17:53:40.428Z,6.73
2023-03-21T17:56:14.779Z,5.33
2023-03-21T17:58:42.426Z,5.10
2023-03-21T18:01:10.372Z,7.50
2023-03-21T18:03:37.987Z,4.60
2023-03-21T18:06:06.438Z,11.37
2023-03-21T18:08:34.228Z,4.40
2023-03-21T18:11:01.840Z,6.40
2023-03-21T18:13:30.819Z,11.00
2023-03-21T18:15:59.758Z,7.13
2023-03-21T18:18:28.062Z,5.40
2023-03-21T18:20:58.025Z,6.53
2023-03-21T18:23:26.530Z,8.63
2023-03-21T18:25:54.139Z,5.50
2023-03-21T18:28:22.523Z,9.20
2023-03-21T18:31:12.569Z,7.07
2023-03-21T18:33:41.684Z,6.70
2023-03-21T18:36:10.334Z,6.07
2023-03-21T18:38:38.513Z,6.87
2023-03-21T18:41:07.563Z,4.53
2023-03-21T18:46:25.250Z,11.33
2023-03-21T18:48:52.870Z,6.90
2023-03-21T18:51:21.697Z,8.73
2023-03-21T18:53:49.400Z,5.60
2023-03-21T18:59:05.496Z,6.70
2023-03-21T19:01:35.906Z,7.33
2023-03-21T19:04:20.806Z,5.87
2023-03-21T19:06:50.165Z,6.60
2023-03-21T19:09:18.616Z,8.27
2023-03-21T19:11:47.078Z,5.73
2023-03-21T19:14:16.837Z,6.80
2023-03-21T19:17:23.193Z,8.23
2023-03-21T19:19:33.770Z,10.33
2023-03-21T19:22:01.568Z,7.97
2023-03-21T19:24:29.394Z,12.43
2023-03-21T19:26:57.284Z,9.10
2023-03-21T19:29:25.693Z,7.77
2023-03-21T19:31:54.810Z,9.77
2023-03-21T19:34:22.586Z,12.23
2023-03-21T19:36:52.171Z,7.07
2023-03-21T19:39:22.306Z,4.97
2023-03-21T19:41:50.784Z,9.00
2023-03-21T19:44:19.516Z,6.43
2023-03-21T19:46:48.406Z,9.33
2023-03-21T19:49:22.167Z,10.23
2023-03-21T19:51:51.154Z,6.20
2023-03-21T19:54:18.825Z,9.00
2023-03-21T19:56:48.171Z,7.83
2023-03-21T19:59:16.016Z,8.70
2023-03-21T20:01:43.816Z,6.43
2023-03-21T20:04:11.698Z,9.70
2023-03-21T20:06:40.891Z,8.17
2023-03-21T20:11:57.683Z,7.23
2023-03-21T20:14:25.768Z,6.27
2023-03-21T20:16:55.344Z,5.60
2023-03-21T20:19:23.160Z,6.20
2023-03-21T20:21:58.817Z,5.10
2023-03-21T20:24:28.341Z,10.63
2023-03-21T20:26:57.300Z,7.13
2023-03-21T20:32:13.136Z,7.97
2023-03-21T20:34:40.876Z,9.97
2023-03-21T20:37:09.910Z,5.17
2023-03-21T20:39:37.680Z,7.97
2023-03-21T20:42:05.845Z,7.67
2023-03-21T20:44:55.932Z,6.63
2023-03-21T20:47:22.110Z,6.13
2023-03-21T20:49:49.742Z,8.30
2023-03-21T20:55:08.978Z,5.77
2023-03-21T20:57:38.712Z,6.63
2023-03-21T21:00:14.792Z,5.17
2023-03-21T21:02:43.887Z,5.27
2023-03-21T21:05:25.163Z,11.53
2023-03-21T21:07:57.350Z,4.90
2023-03-21T21:10:25.934Z,6.20
2023-03-21T21:12:53.879Z,9.03
2023-03-21T21:15:22.030Z,4.80
2023-03-21T21:18:05.406Z,6.13
2023-03-21T21:20:33.620Z,8.83
2023-03-21T21:23:02.685Z,6.20
2023-03-21T21:25:32.948Z,7.83
2023-03-21T21:28:01.561Z,10.00
2023-03-21T21:30:30.266Z,8.23
2023-03-21T21:32:59.528Z,6.13
2023-03-21T21:35:27.448Z,5.97
2023-03-21T21:37:55.074Z,5.33
2023-03-21T21:40:24.194Z,7.13
2023-03-21T21:42:52.015Z,8.30
2023-03-21T21:45:20.147Z,6.20
2023-03-21T21:47:47.843Z,6.50
2023-03-21T21:50:15.528Z,5.17
2023-03-21T21:52:52.365Z,8.20
2023-03-21T21:55:20.284Z,5.90
2023-03-21T21:57:50.931Z,6.70
2023-03-21T22:00:20.294Z,5.83
2023-03-21T22:02:48.120Z,5.13
2023-03-21T22:05:16.235Z,8.20
2023-03-21T22:07:44.302Z,7.80
2023-03-21T22:10:12.447Z,7.30
2023-03-21T22:12:40.314Z,7.07
2023-03-21T22:15:11.965Z,8.80
2023-03-21T22:17:40.583Z,5.80
2023-03-21T22:20:10.056Z,5.80
2023-03-21T22:22:37.922Z,7.30
2023-03-21T22:25:07.462Z,6.10
2023-03-21T22:27:35.525Z,5.13
2023-03-21T22:30:04.788Z,5.77
2023-03-21T22:32:34.599Z,6.23
2023-03-21T22:35:02.769Z,7.37
2023-03-21T22:37:30.647Z,13.37
2023-03-21T22:39:58.395Z,7.97
2023-03-21T22:42:26.393Z,7.27
2023-03-21T22:44:54.087Z,5.57
2023-03-21T22:47:21.674Z,10.53
2023-03-21T22:49:51.542Z,8.03
2023-03-21T22:52:19.167Z,11.50
2023-03-21T22:54:47.712Z,9.13
2023-03-21T22:57:15.974Z,8.00
2023-03-21T22:59:43.956Z,7.40
2023-03-21T23:02:11.576Z,7.10
2023-03-21T23:04:40.898Z,10.90
2023-03-21T23:07:09.919Z,7.40
2023-03-21T23:09:37.789Z,10.80
2023-03-21T23:12:05.753Z,6.90
2023-03-21T23:14:33.393Z,10.40
2023-03-21T23:17:02.545Z,9.23
2023-03-21T23:19:31.208Z,6.50
2023-03-21T23:21:58.944Z,10.30
2023-03-21T23:24:27.999Z,7.73
2023-03-21T23:26:55.801Z,10.10
2023-03-21T23:29:23.415Z,11.00
2023-03-21T23:31:51.047Z,7.40
2023-03-21T23:34:19.377Z,9.13
2023-03-21T23:36:47.451Z,11.50
2023-03-21T23:39:18.423Z,6.63
2023-03-21T23:41:47.455Z,12.87
2023-03-21T23:44:15.324Z,8.90
2023-03-21T23:46:42.977Z,11.10
2023-03-21T23:49:10.807Z,6.60
2023-03-21T23:51:39.295Z,7.90
2023-03-21T23:54:06.980Z,10.23
2023-03-21T23:56:34.669Z,11.13
2023-03-21T23:59:03.860Z,7.53
